createdAt,value
2023-03-30T00:01:04.583Z,6.27
2023-03-30T00:03:33.448Z,6.30
2023-03-30T00:06:05.368Z,5.32
2023-03-30T00:08:33.479Z,6.70
2023-03-30T00:11:02.304Z,6.25
2023-03-30T00:13:30.595Z,6.85
2023-03-30T00:15:59.763Z,6.47
2023-03-30T00:18:27.562Z,6.13
2023-03-30T00:20:55.052Z,6.03
2023-03-30T00:23:23.291Z,6.18
2023-03-30T00:25:50.807Z,6.57
2023-03-30T00:28:18.364Z,5.85
2023-03-30T00:30:46.420Z,6.95
2023-03-30T00:33:15.752Z,6.95
2023-03-30T00:35:43.378Z,6.53
2023-03-30T00:38:10.892Z,6.68
2023-03-30T00:40:38.462Z,6.95
2023-03-30T00:43:08.910Z,6.57
2023-03-30T00:45:37.090Z,6.93
2023-03-30T00:48:07.149Z,5.88
2023-03-30T00:50:38.498Z,6.45
2023-03-30T00:53:10.847Z,7.13
2023-03-30T00:55:39.975Z,6.70
2023-03-30T00:58:09.830Z,6.30
2023-03-30T01:00:39.692Z,6.18
2023-03-30T01:03:13.139Z,6.75
2023-03-30T01:05:44.726Z,6.65
2023-03-30T01:08:16.759Z,7.25
2023-03-30T01:10:45.434Z,7.40
2023-03-30T01:13:14.411Z,7.50
2023-03-30T01:15:53.995Z,7.63
2023-03-30T01:18:33.205Z,6.60
2023-03-30T01:21:37.752Z,7.82
2023-03-30T01:24:27.630Z,6.97
2023-03-30T01:26:59.800Z,6.90
2023-03-30T01:29:37.524Z,7.22
2023-03-30T01:32:32.768Z,7.95
2023-03-30T01:35:12.422Z,7.00
2023-03-30T01:38:03.947Z,7.53
2023-03-30T01:40:34.398Z,7.85
2023-03-30T01:43:08.495Z,7.80
2023-03-30T01:45:42.276Z,7.85
2023-03-30T01:48:12.490Z,7.43
2023-03-30T01:50:42.531Z,7.22
2023-03-30T01:53:15.730Z,7.13
2023-03-30T01:55:47.446Z,7.00
2023-03-30T01:58:17.937Z,8.13
2023-03-30T02:00:47.336Z,8.20
2023-03-30T02:03:19.152Z,7.35
2023-03-30T02:05:48.104Z,7.25
2023-03-30T02:08:19.346Z,7.18
2023-03-30T02:10:49.321Z,5.28
2023-03-30T02:13:17.508Z,8.25
2023-03-30T02:15:48.900Z,7.68
2023-03-30T02:18:16.533Z,7.45
2023-03-30T02:20:43.988Z,7.28
2023-03-30T02:23:11.541Z,7.47
2023-03-30T02:25:39.938Z,7.38
2023-03-30T02:28:10.069Z,8.48
2023-03-30T02:30:41.085Z,7.85
2023-03-30T02:33:09.491Z,8.23
2023-03-30T02:35:57.902Z,7.38
2023-03-30T02:38:44.953Z,7.43
2023-03-30T02:41:20.018Z,7.35
2023-03-30T02:43:57.128Z,8.32
2023-03-30T02:46:36.492Z,8.23
2023-03-30T02:49:14.266Z,8.38
2023-03-30T02:51:45.584Z,7.70
2023-03-30T02:54:24.027Z,8.23
2023-03-30T02:56:56.497Z,7.75
2023-03-30T02:59:28.789Z,8.40
2023-03-30T03:01:59.669Z,7.85
2023-03-30T03:04:29.180Z,9.10
2023-03-30T03:06:56.878Z,8.48
2023-03-30T03:09:26.140Z,8.77
2023-03-30T03:11:53.759Z,8.40
2023-03-30T03:14:21.717Z,8.48
2023-03-30T03:16:50.590Z,8.95
2023-03-30T03:19:18.162Z,8.90
2023-03-30T03:21:45.692Z,8.20
2023-03-30T03:24:17.224Z,8.45
2023-03-30T03:26:44.747Z,7.40
2023-03-30T03:29:12.431Z,8.18
2023-03-30T03:31:40.244Z,8.07
2023-03-30T03:34:09.114Z,8.13
2023-03-30T03:36:36.619Z,8.13
2023-03-30T03:39:04.556Z,8.48
2023-03-30T03:41:32.024Z,8.45
2023-03-30T03:43:59.485Z,7.50
2023-03-30T03:46:26.997Z,8.85
2023-03-30T03:48:54.681Z,7.95
2023-03-30T03:51:23.762Z,8.73
2023-03-30T03:53:51.549Z,8.48
2023-03-30T03:56:19.049Z,8.48
2023-03-30T03:58:46.581Z,9.07
2023-03-30T04:01:14.626Z,9.02
2023-03-30T04:03:42.571Z,9.02
2023-03-30T04:06:10.163Z,9.88
2023-03-30T04:08:39.081Z,9.73
2023-03-30T04:11:07.935Z,9.52
2023-03-30T04:13:36.023Z,9.95
2023-03-30T04:16:03.566Z,9.38
2023-03-30T04:18:33.687Z,11.15
2023-03-30T04:21:03.097Z,10.88
2023-03-30T04:23:33.632Z,9.77
2023-03-30T04:26:03.129Z,10.00
2023-03-30T04:28:31.821Z,10.63
2023-03-30T04:31:00.158Z,10.57
2023-03-30T04:33:28.117Z,10.60
2023-03-30T04:35:55.744Z,11.73
2023-03-30T04:38:23.226Z,10.65
2023-03-30T04:40:50.969Z,10.85
2023-03-30T04:43:21.554Z,11.40
2023-03-30T04:45:50.694Z,11.25
2023-03-30T04:48:18.226Z,10.88
2023-03-30T04:50:46.532Z,10.38
2023-03-30T04:53:14.966Z,9.90
2023-03-30T04:55:42.615Z,10.32
2023-03-30T04:58:11.992Z,10.52
2023-03-30T05:00:41.265Z,9.65
2023-03-30T05:03:08.894Z,9.95
2023-03-30T05:05:36.602Z,10.32
2023-03-30T05:08:04.129Z,9.77
2023-03-30T05:10:31.677Z,10.65
2023-03-30T05:12:59.178Z,10.70
2023-03-30T05:15:27.434Z,10.30
2023-03-30T05:17:56.709Z,10.18
2023-03-30T05:20:25.133Z,10.23
2023-03-30T05:22:53.757Z,9.65
2023-03-30T05:25:21.248Z,10.38
2023-03-30T05:27:48.695Z,10.40
2023-03-30T05:30:16.301Z,10.93
2023-03-30T05:32:43.878Z,11.00
2023-03-30T05:35:12.935Z,10.85
2023-03-30T05:37:40.390Z,10.35
2023-03-30T05:40:09.568Z,10.43
2023-03-30T05:42:38.126Z,10.00
2023-03-30T05:45:08.067Z,10.07
2023-03-30T05:47:36.339Z,10.68
2023-03-30T05:50:04.359Z,9.68
2023-03-30T05:52:33.337Z,9.68
2023-03-30T05:55:01.042Z,10.10
2023-03-30T05:57:28.587Z,10.50
2023-03-30T05:59:56.161Z,10.32
2023-03-30T06:02:24.666Z,10.80
2023-03-30T06:04:52.472Z,10.57
2023-03-30T06:07:20.892Z,10.35
2023-03-30T06:09:49.911Z,10.45
2023-03-30T06:12:17.390Z,9.75
2023-03-30T06:14:44.991Z,10.05
2023-03-30T06:17:15.958Z,10.35
2023-03-30T06:19:43.580Z,10.37
2023-03-30T06:22:11.388Z,9.88
2023-03-30T06:24:38.880Z,10.70
2023-03-30T06:27:07.777Z,10.15
2023-03-30T06:29:35.873Z,9.65
2023-03-30T06:32:04.876Z,9.02
2023-03-30T06:34:32.649Z,9.25
2023-03-30T06:37:00.107Z,10.18
2023-03-30T06:39:28.093Z,9.20
2023-03-30T06:41:55.578Z,9.10
2023-03-30T06:44:24.618Z,9.32
2023-03-30T06:46:52.124Z,8.70
2023-03-30T06:49:20.616Z,9.25
2023-03-30T06:51:48.132Z,8.90
2023-03-30T06:54:20.091Z,8.23
2023-03-30T06:56:47.652Z,8.00
2023-03-30T06:59:15.676Z,7.72
2023-03-30T07:01:44.628Z,7.88
2023-03-30T07:04:12.530Z,8.25
2023-03-30T07:06:40.105Z,6.88
2023-03-30T07:09:08.047Z,7.65
2023-03-30T07:11:35.467Z,7.30
2023-03-30T07:14:05.451Z,6.50
2023-03-30T07:16:33.186Z,5.93
2023-03-30T07:19:02.277Z,6.15
2023-03-30T07:21:29.886Z,6.18
2023-03-30T07:23:58.104Z,5.68
2023-03-30T07:26:25.600Z,5.55
2023-03-30T07:28:53.129Z,5.80
2023-03-30T07:31:21.940Z,4.95
2023-03-30T07:33:49.614Z,5.30
2023-03-30T07:36:18.824Z,4.82
2023-03-30T07:38:46.976Z,4.35
2023-03-30T07:41:16.252Z,4.53
2023-03-30T07:43:43.812Z,3.90
2023-03-30T07:46:12.858Z,4.55
2023-03-30T07:48:40.545Z,4.10
2023-03-30T07:51:12.394Z,3.65
2023-03-30T07:56:09.764Z,3.33
2023-03-30T07:58:37.431Z,3.35
2023-03-30T08:01:05.189Z,3.47
2023-03-30T08:03:33.174Z,3.40
2023-03-30T08:06:04.483Z,3.22
2023-03-30T08:08:32.432Z,3.33
2023-03-30T08:11:01.714Z,3.60
2023-03-30T08:13:29.356Z,3.22
2023-03-30T08:15:57.226Z,3.22
2023-03-30T08:18:25.969Z,3.75
2023-03-30T08:20:55.433Z,2.88
2023-03-30T08:23:23.557Z,3.35
2023-03-30T08:25:52.815Z,3.00
2023-03-30T08:28:22.166Z,3.10
2023-03-30T08:30:49.732Z,2.85
2023-03-30T08:33:17.251Z,3.00
2023-03-30T08:35:45.583Z,3.30
2023-03-30T08:38:17.725Z,3.20
2023-03-30T08:40:46.382Z,3.22
2023-03-30T08:43:34.721Z,3.00
2023-03-30T08:46:02.802Z,3.45
2023-03-30T08:48:37.480Z,2.85
2023-03-30T08:51:09.827Z,3.15
2023-03-30T08:53:38.216Z,3.35
2023-03-30T08:56:10.500Z,3.60
2023-03-30T08:58:44.817Z,3.35
2023-03-30T09:01:18.666Z,3.42
2023-03-30T09:03:55.862Z,2.95
2023-03-30T09:06:28.479Z,2.75
2023-03-30T09:08:56.060Z,2.92
2023-03-30T09:11:29.380Z,3.15
2023-03-30T09:14:01.630Z,3.05
2023-03-30T09:16:35.036Z,3.03
2023-03-30T09:19:04.136Z,3.28
2023-03-30T09:21:32.528Z,3.20
2023-03-30T09:24:02.071Z,3.17
2023-03-30T09:26:35.951Z,3.05
2023-03-30T09:29:07.121Z,2.92
2023-03-30T09:31:40.855Z,3.05
2023-03-30T09:34:15.301Z,3.25
2023-03-30T09:36:46.837Z,3.15
2023-03-30T09:39:18.581Z,2.92
2023-03-30T09:42:01.084Z,3.20
2023-03-30T09:44:35.782Z,3.08
2023-03-30T09:47:04.565Z,3.45
2023-03-30T09:49:39.221Z,3.40
2023-03-30T09:52:08.865Z,2.83
2023-03-30T09:54:38.327Z,2.90
2023-03-30T09:57:06.481Z,2.78
2023-03-30T09:59:37.074Z,2.88
2023-03-30T10:02:18.643Z,3.15
2023-03-30T10:05:02.367Z,3.15
2023-03-30T10:07:32.864Z,2.67
2023-03-30T10:10:01.715Z,2.80
2023-03-30T10:12:30.488Z,2.97
2023-03-30T10:15:02.278Z,3.20
2023-03-30T10:20:16.791Z,3.05
2023-03-30T10:22:50.159Z,2.85
2023-03-30T10:25:21.228Z,2.60
2023-03-30T10:27:50.989Z,3.35
2023-03-30T10:30:23.546Z,3.08
2023-03-30T10:32:51.942Z,2.65
2023-03-30T10:35:22.149Z,2.65
2023-03-30T10:37:52.585Z,2.75
2023-03-30T10:40:33.245Z,2.53
2023-03-30T10:43:02.024Z,2.72
2023-03-30T10:45:35.969Z,3.05
2023-03-30T10:48:14.460Z,3.40
2023-03-30T10:50:48.682Z,2.80
2023-03-30T10:53:27.353Z,2.63
2023-03-30T10:55:59.286Z,3.42
2023-03-30T10:58:37.257Z,2.83
2023-03-30T11:01:13.071Z,3.20
2023-03-30T11:03:41.270Z,3.00
2023-03-30T11:06:13.549Z,2.97
2023-03-30T11:08:42.662Z,3.03
2023-03-30T11:11:16.600Z,3.13
2023-03-30T11:13:46.293Z,2.83
2023-03-30T11:16:19.658Z,3.38
2023-03-30T11:18:52.898Z,4.25
2023-03-30T11:21:22.737Z,2.65
2023-03-30T11:23:54.373Z,3.15
2023-03-30T11:26:25.163Z,3.20
2023-03-30T11:29:04.394Z,2.80
2023-03-30T11:31:40.881Z,3.33
2023-03-30T11:34:13.848Z,3.13
2023-03-30T11:36:46.211Z,3.50
2023-03-30T11:39:28.872Z,3.58
2023-03-30T11:42:04.707Z,2.50
2023-03-30T11:44:32.416Z,3.83
2023-03-30T11:47:12.607Z,3.15
2023-03-30T11:49:46.940Z,3.47
2023-03-30T11:52:23.434Z,3.28
2023-03-30T11:55:08.928Z,3.15
2023-03-30T11:57:39.472Z,2.72
2023-03-30T12:00:23.345Z,3.38
2023-03-30T12:02:56.556Z,2.95
2023-03-30T12:05:27.442Z,2.60
2023-03-30T12:08:02.182Z,3.25
2023-03-30T12:10:34.972Z,3.10
2023-03-30T12:13:02.705Z,3.38
2023-03-30T12:15:42.275Z,3.03
2023-03-30T12:18:20.157Z,3.10
2023-03-30T12:20:52.234Z,3.60
2023-03-30T12:23:30.601Z,3.28
2023-03-30T12:26:08.601Z,3.80
2023-03-30T12:29:06.575Z,2.97
2023-03-30T12:32:05.927Z,2.85
2023-03-30T12:34:36.311Z,2.72
2023-03-30T12:37:10.036Z,3.20
2023-03-30T12:39:45.125Z,3.00
2023-03-30T12:42:26.276Z,3.33
2023-03-30T12:45:05.522Z,3.10
2023-03-30T12:47:51.285Z,2.50
2023-03-30T12:50:32.846Z,3.20
2023-03-30T12:53:23.710Z,3.00
2023-03-30T12:55:57.639Z,3.05
2023-03-30T12:58:45.178Z,3.00
2023-03-30T13:01:36.927Z,3.03
2023-03-30T13:06:38.317Z,3.05
2023-03-30T13:09:38.592Z,3.03
2023-03-30T13:12:27.837Z,3.60
2023-03-30T13:15:00.790Z,3.50
2023-03-30T13:17:28.604Z,3.10
2023-03-30T13:20:29.308Z,3.47
2023-03-30T13:23:07.183Z,3.22
2023-03-30T13:25:46.647Z,2.95
2023-03-30T13:28:36.680Z,2.92
2023-03-30T13:31:12.094Z,3.10
2023-03-30T13:33:45.628Z,3.10
2023-03-30T13:36:15.773Z,3.40
2023-03-30T13:39:06.735Z,3.67
2023-03-30T13:41:55.729Z,3.50
2023-03-30T13:44:44.299Z,3.85
2023-03-30T13:47:27.781Z,3.22
2023-03-30T13:49:59.821Z,2.97
2023-03-30T13:52:32.143Z,2.72
2023-03-30T13:55:01.580Z,3.78
2023-03-30T13:57:33.705Z,3.00
2023-03-30T14:00:07.696Z,2.72
2023-03-30T14:02:40.251Z,3.22
2023-03-30T14:05:20.635Z,2.67
2023-03-30T14:07:49.391Z,3.35
2023-03-30T14:10:27.996Z,3.13
2023-03-30T14:12:56.943Z,3.53
2023-03-30T14:15:27.159Z,4.07
2023-03-30T14:17:56.214Z,4.53
2023-03-30T14:20:32.081Z,4.40
2023-03-30T14:23:00.572Z,4.53
2023-03-30T14:25:30.744Z,4.05
2023-03-30T14:27:58.670Z,4.03
2023-03-30T14:30:29.436Z,4.00
2023-03-30T14:33:07.904Z,4.90
2023-03-30T14:35:38.861Z,6.10
2023-03-30T14:38:16.570Z,4.85
2023-03-30T14:40:46.525Z,4.32
2023-03-30T14:43:15.728Z,4.80
2023-03-30T14:45:44.510Z,4.45
2023-03-30T14:48:21.212Z,4.78
2023-03-30T14:50:49.710Z,4.65
2023-03-30T14:53:21.091Z,4.93
2023-03-30T14:55:50.132Z,4.95
2023-03-30T14:58:18.317Z,4.63
2023-03-30T15:00:46.721Z,5.38
2023-03-30T15:03:26.409Z,5.03
2023-03-30T15:06:00.930Z,4.85
2023-03-30T15:08:32.217Z,4.57
2023-03-30T15:11:04.359Z,5.00
2023-03-30T15:13:35.920Z,5.13
2023-03-30T15:16:04.873Z,5.18
2023-03-30T15:18:33.306Z,4.25
2023-03-30T15:21:01.207Z,4.65
2023-03-30T15:23:32.740Z,4.13
2023-03-30T15:26:03.190Z,4.60
2023-03-30T15:28:35.091Z,5.25
2023-03-30T15:33:33.272Z,3.88
2023-03-30T15:36:07.507Z,4.30
2023-03-30T15:38:36.973Z,4.45
2023-03-30T15:41:13.665Z,4.65
2023-03-30T15:43:53.960Z,4.07
2023-03-30T15:46:21.752Z,4.15
2023-03-30T15:48:51.101Z,4.18
2023-03-30T15:51:22.383Z,4.40
2023-03-30T15:53:54.351Z,5.15
2023-03-30T15:56:28.674Z,4.25
2023-03-30T15:58:58.273Z,4.20
2023-03-30T16:01:29.444Z,4.72
2023-03-30T16:04:02.045Z,5.15
2023-03-30T16:06:29.663Z,5.43
2023-03-30T16:08:57.140Z,5.07
2023-03-30T16:11:26.554Z,4.97
2023-03-30T16:13:54.357Z,4.50
2023-03-30T16:16:22.326Z,4.18
2023-03-30T16:18:49.900Z,4.75
2023-03-30T16:21:18.837Z,4.50
2023-03-30T16:23:46.562Z,4.40
2023-03-30T16:26:14.169Z,4.88
2023-03-30T16:28:43.107Z,4.75
2023-03-30T16:31:14.068Z,4.72
2023-03-30T16:33:41.682Z,4.57
2023-03-30T16:36:14.196Z,4.78
2023-03-30T16:38:41.827Z,5.25
2023-03-30T16:41:11.872Z,5.75
2023-03-30T16:43:39.382Z,4.90
2023-03-30T16:46:08.303Z,5.90
2023-03-30T16:48:36.067Z,5.50
2023-03-30T16:51:04.061Z,5.75
2023-03-30T16:53:32.027Z,6.47
2023-03-30T16:55:59.492Z,6.57
2023-03-30T16:58:27.173Z,6.43
2023-03-30T17:01:00.987Z,5.80
2023-03-30T17:03:30.498Z,5.40
2023-03-30T17:05:58.120Z,5.82
2023-03-30T17:08:26.520Z,6.10
2023-03-30T17:10:56.612Z,6.30
2023-03-30T17:13:25.087Z,6.55
2023-03-30T17:15:52.932Z,6.15
2023-03-30T17:18:22.382Z,6.28
2023-03-30T17:20:52.989Z,6.15
2023-03-30T17:23:20.883Z,6.28
2023-03-30T17:25:49.509Z,5.50
2023-03-30T17:28:21.911Z,7.05
2023-03-30T17:30:50.423Z,6.63
2023-03-30T17:33:18.528Z,6.70
2023-03-30T17:35:48.890Z,6.95
2023-03-30T17:38:18.013Z,7.70
2023-03-30T17:40:46.133Z,7.60
2023-03-30T17:43:14.500Z,7.30
2023-03-30T17:45:42.680Z,7.90
2023-03-30T17:48:13.302Z,7.75
2023-03-30T17:50:43.586Z,7.57
2023-03-30T17:53:13.279Z,7.97
2023-03-30T17:55:42.348Z,8.02
2023-03-30T17:58:15.662Z,8.65
2023-03-30T18:00:43.454Z,9.25
2023-03-30T18:03:11.092Z,7.38
2023-03-30T18:05:38.774Z,8.43
2023-03-30T18:08:06.915Z,7.47
2023-03-30T18:10:37.027Z,7.70
2023-03-30T18:13:06.547Z,8.68
2023-03-30T18:15:34.700Z,9.35
2023-03-30T18:18:03.252Z,8.63
2023-03-30T18:20:33.574Z,8.38
2023-03-30T18:23:01.462Z,7.65
2023-03-30T18:25:32.475Z,8.30
2023-03-30T18:28:01.331Z,7.90
2023-03-30T18:30:31.576Z,10.10
2023-03-30T18:32:59.794Z,10.27
2023-03-30T18:35:30.359Z,10.38
2023-03-30T18:37:58.381Z,9.35
2023-03-30T18:40:31.177Z,9.77
2023-03-30T18:43:00.376Z,9.23
2023-03-30T18:45:31.234Z,10.70
2023-03-30T18:47:59.664Z,10.40
2023-03-30T18:50:30.569Z,11.30
2023-03-30T18:52:58.025Z,9.85
2023-03-30T18:55:26.014Z,8.68
2023-03-30T18:57:53.527Z,10.05
2023-03-30T19:00:24.141Z,9.57
2023-03-30T19:02:53.185Z,9.13
2023-03-30T19:05:22.203Z,9.18
2023-03-30T19:07:50.529Z,9.35
2023-03-30T19:10:19.710Z,9.55
2023-03-30T19:12:49.051Z,8.55
2023-03-30T19:15:21.560Z,9.73
2023-03-30T19:17:49.200Z,9.38
2023-03-30T19:20:19.605Z,10.23
2023-03-30T19:22:47.546Z,8.75
2023-03-30T19:25:15.907Z,8.10
2023-03-30T19:27:55.608Z,6.82
2023-03-30T19:30:29.523Z,7.30
2023-03-30T19:32:58.924Z,6.10
2023-03-30T19:35:28.788Z,5.95
2023-03-30T19:37:56.626Z,5.68
2023-03-30T19:40:24.904Z,3.95
2023-03-30T19:42:52.787Z,3.17
2023-03-30T19:45:23.994Z,2.72
2023-03-30T19:47:52.043Z,2.67
2023-03-30T19:50:23.237Z,2.85
2023-03-30T19:52:54.395Z,1.90
2023-03-30T19:55:24.145Z,1.70
2023-03-30T19:57:51.694Z,1.88
2023-03-30T20:00:20.355Z,1.80
2023-03-30T20:02:49.460Z,2.35
2023-03-30T20:05:17.532Z,1.95
2023-03-30T20:07:46.305Z,1.90
2023-03-30T20:10:18.809Z,2.28
2023-03-30T20:12:46.745Z,2.40
2023-03-30T20:15:14.617Z,2.50
2023-03-30T20:17:42.320Z,2.13
2023-03-30T20:20:12.741Z,2.15
2023-03-30T20:22:42.050Z,2.08
2023-03-30T20:25:11.897Z,2.00
2023-03-30T20:27:40.936Z,2.20
2023-03-30T20:30:09.791Z,2.03
2023-03-30T20:32:37.293Z,2.30
2023-03-30T20:35:05.474Z,2.75
2023-03-30T20:37:33.018Z,3.13
2023-03-30T20:40:09.620Z,2.55
2023-03-30T20:42:39.922Z,2.60
2023-03-30T20:45:10.290Z,2.40
2023-03-30T20:47:38.167Z,2.40
2023-03-30T20:50:07.586Z,2.10
2023-03-30T20:52:35.235Z,2.10
2023-03-30T20:55:02.776Z,2.00
2023-03-30T20:57:30.297Z,1.90
2023-03-30T20:59:57.812Z,1.92
2023-03-30T21:02:27.130Z,2.08
2023-03-30T21:04:56.719Z,1.98
2023-03-30T21:07:24.769Z,2.28
2023-03-30T21:09:52.346Z,2.35
2023-03-30T21:12:19.940Z,2.30
2023-03-30T21:14:47.530Z,2.67
2023-03-30T21:17:15.124Z,2.50
2023-03-30T21:19:44.100Z,2.97
2023-03-30T21:22:11.562Z,2.88
2023-03-30T21:24:39.134Z,2.50
2023-03-30T21:27:06.613Z,2.42
2023-03-30T21:29:34.082Z,2.90
2023-03-30T21:32:01.600Z,2.70
2023-03-30T21:34:29.037Z,3.38
2023-03-30T21:36:58.122Z,3.10
2023-03-30T21:39:26.031Z,3.55
2023-03-30T21:41:53.516Z,3.53
2023-03-30T21:44:21.414Z,3.42
2023-03-30T21:46:48.954Z,4.30
2023-03-30T21:49:16.512Z,3.40
2023-03-30T21:51:44.072Z,3.83
2023-03-30T21:54:14.081Z,3.58
2023-03-30T21:56:41.746Z,3.53
2023-03-30T21:59:09.737Z,3.53
2023-03-30T22:01:38.740Z,3.80
2023-03-30T22:04:07.466Z,4.35
2023-03-30T22:06:35.220Z,3.40
2023-03-30T22:09:02.763Z,3.75
2023-03-30T22:11:31.731Z,4.30
2023-03-30T22:13:59.492Z,3.33
2023-03-30T22:16:31.164Z,3.53
2023-03-30T22:18:58.885Z,4.20
2023-03-30T22:21:29.183Z,3.55
2023-03-30T22:23:56.888Z,3.13
2023-03-30T22:26:24.477Z,3.22
2023-03-30T22:28:53.354Z,3.47
2023-03-30T22:31:20.951Z,3.20
2023-03-30T22:33:49.048Z,2.88
2023-03-30T22:36:18.977Z,3.35
2023-03-30T22:38:46.848Z,2.90
2023-03-30T22:41:15.033Z,2.67
2023-03-30T22:43:42.599Z,2.65
2023-03-30T22:46:12.078Z,2.95
2023-03-30T22:48:41.503Z,3.13
2023-03-30T22:51:09.477Z,2.97
2023-03-30T22:53:38.524Z,2.72
2023-03-30T22:56:07.630Z,2.63
2023-03-30T22:58:36.000Z,2.72
2023-03-30T23:01:06.036Z,2.60
2023-03-30T23:03:34.957Z,2.65
2023-03-30T23:06:02.567Z,2.70
2023-03-30T23:08:30.819Z,2.67
2023-03-30T23:11:04.990Z,2.67
2023-03-30T23:13:33.531Z,2.65
2023-03-30T23:16:01.533Z,2.35
2023-03-30T23:18:29.169Z,2.88
2023-03-30T23:20:58.121Z,2.50
2023-03-30T23:23:25.768Z,2.17
2023-03-30T23:25:53.403Z,2.42
2023-03-30T23:28:20.941Z,2.55
2023-03-30T23:30:48.494Z,2.47
2023-03-30T23:33:16.491Z,2.50
2023-03-30T23:35:48.880Z,2.20
2023-03-30T23:38:18.007Z,2.25
2023-03-30T23:40:45.577Z,2.15
2023-03-30T23:43:13.232Z,2.20
2023-03-30T23:45:41.320Z,2.80
2023-03-30T23:48:08.859Z,2.28
2023-03-30T23:50:36.750Z,2.67
2023-03-30T23:53:04.280Z,2.58
2023-03-30T23:55:33.644Z,2.30
2023-03-30T23:58:01.521Z,2.63
